createdAt,value
2023-04-15T00:03:08.898Z,99.90
2023-04-15T00:13:15.297Z,99.90
2023-04-15T00:23:19.133Z,99.90
2023-04-15T00:33:24.111Z,99.90
2023-04-15T00:43:27.776Z,99.90
2023-04-15T00:53:32.804Z,99.90
2023-04-15T01:03:37.227Z,99.90
2023-04-15T01:13:42.720Z,99.90
2023-04-15T01:23:49.357Z,99.90
2023-04-15T01:33:54.326Z,99.90
2023-04-15T01:43:58.218Z,99.90
2023-04-15T01:54:03.190Z,99.90
2023-04-15T02:04:08.132Z,99.90
2023-04-15T02:14:15.906Z,99.90
2023-04-15T02:24:19.541Z,99.90
2023-04-15T02:34:24.588Z,99.90
2023-04-15T02:44:28.474Z,99.90
2023-04-15T02:54:33.965Z,99.90
2023-04-15T03:04:37.758Z,99.90
2023-04-15T03:14:42.774Z,99.90
2023-04-15T03:24:46.540Z,99.90
2023-04-15T03:34:51.772Z,99.90
2023-04-15T03:44:55.903Z,99.90
2023-04-15T03:55:00.990Z,99.90
2023-04-15T04:05:05.190Z,99.90
2023-04-15T04:15:11.517Z,99.90
2023-04-15T04:25:27.267Z,99.90
2023-04-15T04:35:30.947Z,99.90
2023-04-15T04:45:36.266Z,99.90
2023-04-15T04:55:40.083Z,99.90
2023-04-15T05:05:45.290Z,99.90
2023-04-15T05:15:49.004Z,99.90
2023-04-15T05:25:54.086Z,99.90
2023-04-15T05:35:57.813Z,99.90
2023-04-15T05:46:02.912Z,99.90
2023-04-15T05:56:06.857Z,99.90
2023-04-15T06:06:11.890Z,99.90
2023-04-15T06:16:15.663Z,99.90
2023-04-15T06:26:20.845Z,99.90
2023-04-15T06:36:24.510Z,99.90
2023-04-15T06:46:29.501Z,99.90
2023-04-15T06:56:33.390Z,99.90
2023-04-15T07:06:38.793Z,99.90
2023-04-15T07:16:42.651Z,99.90
2023-04-15T07:26:47.725Z,99.90
2023-04-15T07:36:52.071Z,99.90
2023-04-15T07:46:58.059Z,99.90
2023-04-15T07:57:03.153Z,99.90
2023-04-15T08:07:08.882Z,99.90
2023-04-15T08:17:12.773Z,99.90
2023-04-15T08:27:18.017Z,99.90
2023-04-15T08:37:22.961Z,99.00
2023-04-15T08:47:31.643Z,98.60
2023-04-15T08:57:36.125Z,97.90
2023-04-15T09:07:41.362Z,95.40
2023-04-15T09:17:46.119Z,94.90
2023-04-15T09:27:51.999Z,94.60
2023-04-15T09:38:05.164Z,94.50
2023-04-15T09:48:22.280Z,94.70
2023-04-15T09:58:27.877Z,95.70
2023-04-15T10:08:35.757Z,94.20
2023-04-15T10:18:44.163Z,94.90
2023-04-15T10:28:49.294Z,94.40
2023-04-15T10:38:53.098Z,93.30
2023-04-15T10:48:58.370Z,92.90
2023-04-15T10:59:02.744Z,93.90
2023-04-15T11:09:09.637Z,96.50
2023-04-15T11:19:13.304Z,99.90
2023-04-15T11:29:20.274Z,99.90
2023-04-15T11:39:24.687Z,99.90
2023-04-15T11:49:30.780Z,99.90
2023-04-15T11:59:45.743Z,99.90
2023-04-15T12:09:58.695Z,99.90
2023-04-15T12:20:02.487Z,99.90
2023-04-15T12:30:09.589Z,99.90
2023-04-15T12:40:13.537Z,99.90
2023-04-15T12:50:18.887Z,99.90
2023-04-15T13:00:23.066Z,99.90
2023-04-15T13:10:29.260Z,99.90
2023-04-15T13:20:33.111Z,99.90
2023-04-15T13:30:39.498Z,99.90
2023-04-15T13:40:43.104Z,99.90
2023-04-15T13:50:48.197Z,99.90
2023-04-15T14:00:51.925Z,99.90
2023-04-15T14:10:57.679Z,99.90
2023-04-15T14:21:01.540Z,99.90
2023-04-15T14:31:06.974Z,99.90
2023-04-15T14:41:11.124Z,99.90
2023-04-15T14:51:16.234Z,99.90
2023-04-15T15:01:20.053Z,99.90
2023-04-15T15:11:25.450Z,99.90
2023-04-15T15:21:29.276Z,99.90
2023-04-15T15:31:36.051Z,99.90
2023-04-15T15:41:39.738Z,99.90
2023-04-15T15:51:45.646Z,99.90
2023-04-15T16:01:50.282Z,99.90
2023-04-15T16:11:55.862Z,99.90
2023-04-15T16:22:01.086Z,99.90
2023-04-15T16:32:07.231Z,99.90
2023-04-15T16:42:11.012Z,99.90
2023-04-15T16:52:16.169Z,99.90
2023-04-15T17:02:20.022Z,99.90
2023-04-15T17:12:25.291Z,99.90
2023-04-15T17:22:29.875Z,99.90
2023-04-15T17:32:39.661Z,99.90
2023-04-15T17:42:43.545Z,99.90
2023-04-15T17:52:48.645Z,99.90
2023-04-15T18:02:52.900Z,99.90
2023-04-15T18:12:58.404Z,99.90
2023-04-15T18:23:02.058Z,99.90
2023-04-15T18:33:07.153Z,99.90
2023-04-15T18:43:10.891Z,99.90
2023-04-15T18:53:16.419Z,99.90
2023-04-15T19:03:20.359Z,99.90
2023-04-15T19:13:26.300Z,99.90
2023-04-15T19:23:31.897Z,99.90
2023-04-15T19:33:37.046Z,99.90
2023-04-15T19:43:40.858Z,99.90
2023-04-15T19:53:46.443Z,99.90
2023-04-15T20:03:50.314Z,99.90
2023-04-15T20:13:55.719Z,99.90
2023-04-15T20:23:59.376Z,99.90
2023-04-15T20:34:04.390Z,99.90
2023-04-15T20:44:08.129Z,99.90
2023-04-15T20:54:13.154Z,99.90
2023-04-15T21:04:17.025Z,99.90
2023-04-15T21:14:22.587Z,99.90
2023-04-15T21:24:26.555Z,99.90
2023-04-15T21:34:31.855Z,99.90
2023-04-15T21:44:35.662Z,99.90
2023-04-15T21:54:40.931Z,99.90
2023-04-15T22:04:44.865Z,99.90
2023-04-15T22:14:50.605Z,99.90
2023-04-15T22:24:54.460Z,99.90
2023-04-15T22:35:00.293Z,99.90
2023-04-15T22:45:04.315Z,99.90
2023-04-15T22:55:10.488Z,99.90
2023-04-15T23:05:14.301Z,99.90
2023-04-15T23:15:19.366Z,99.90
2023-04-15T23:25:23.232Z,99.90
2023-04-15T23:35:28.452Z,99.90
2023-04-15T23:45:32.156Z,99.90
2023-04-15T23:55:37.275Z,99.90
